Edneyville, North Carolina
Current Conditions -  °F | °C
As of 4:47 AM on Thursday 27 Nov 2014 (Local Time) from KAVL Reporting Station
Overcast Overcast  
Wind Chill: 28°   Ceiling: 2200
Heat Index: 35°   Visibility: 10mi
Dew Point: 32°   Wind: 9mph
Humidity: 89%   Direction: 360°N
Pressure: 29.95"   Gusts: NA
Location:  35.39°N, 82.34°W
Report Text: KAVL 270947Z AUTO 36008KT 10SM BKN022 BKN027 OVC036 02/00 A2995 RMK AO2 T00170000
Loading
Personal Weather Stations






























Interactive Weather Map New forecast layout! Learn more

10-Day Weather Forecast

Advertisements
Track Severe Weather on mobile